| time (UTC) | temp C | wind direction | speed KPH | gust KPH | rain 1hr cm | rain 24hr cm | rain mn cm | humidity % | barometer mb |
| 20260902160805 | 6 | 263 | 4.8 | 4.8 | 0.00 | 0.51 | 0.00 | 99 | 1007.4 |
| 20260902160304 | 6 | 268 | 3.2 | 8.0 | 0.00 | 0.51 | 0.00 | 99 | 1007.4 |
| 20260902150805 | 6 | 271 | 4.8 | 8.0 | 0.00 | 0.51 | 0.00 | 99 | 1007.4 |
| 20260902150306 | 6 | 259 | 4.8 | 8.0 | 0.00 | 0.51 | 0.00 | 99 | 1007.4 |
| 20260902140804 | 6 | 267 | 8.0 | 8.0 | 0.00 | 0.51 | 0.00 | 99 | 1007.3 |
| 20260902140305 | 6 | 273 | 8.0 | 8.0 | 0.00 | 0.51 | 0.00 | 98 | 1007.3 |
| 20260902130804 | 6 | 275 | 8.0 | 8.0 | 0.00 | 0.51 | 0.00 | 98 | 1007.2 |
| 20260902130305 | 6 | 275 | 8.0 | 8.0 | 0.00 | 0.51 | 0.00 | 99 | 1007.2 |
| 20260902120805 | 6 | 275 | 4.8 | 8.0 | 0.00 | 0.51 | 0.00 | 98 | 1007.0 |
| 20260902120305 | 6 | 275 | 4.8 | 8.0 | 0.00 | 0.51 | 0.00 | 98 | 1007.0 |
| 20260902110804 | 6 | 270 | 4.8 | 8.0 | 0.00 | 0.51 | 0.00 | 98 | 1006.9 |
| 20260902110305 | 6 | 272 | 4.8 | 8.0 | 0.00 | 0.51 | 0.00 | 98 | 1006.9 |
| 20260902100306 | 7 | 271 | 4.8 | 8.0 | 0.00 | 0.51 | 0.00 | 98 | 1006.8 |
| 20260902090805 | 7 | 269 | 3.2 | 4.8 | 0.00 | 0.51 | 0.00 | 98 | 1006.7 |
| 20260902090306 | 7 | 268 | 3.2 | 4.8 | 0.00 | 0.51 | 0.00 | 98 | 1006.7 |
| 20260902080805 | 7 | 258 | 3.2 | 3.2 | 0.00 | 0.51 | 0.00 | 98 | 1006.6 |
| 20260902080305 | 7 | 261 | 3.2 | 4.8 | 0.00 | 0.51 | 0.00 | 98 | 1006.7 |
| 20260902070813 | 7 | 252 | 3.2 | 3.2 | 0.25 | 0.51 | 0.00 | 98 | 1006.5 |
| 20260902070305 | 7 | 253 | 3.2 | 4.8 | 0.25 | 0.51 | 0.00 | 98 | 1006.5 |
| 20260902060306 | 7 | 249 | 3.2 | 4.8 | 0.00 | 0.25 | 0.25 | 98 | 1006.6 |
| 20260902050804 | 7 | 248 | 1.6 | 3.2 | 0.00 | 0.25 | 0.25 | 98 | 1006.4 |
| 20260902050304 | 7 | 258 | 3.2 | 3.2 | 0.00 | 0.25 | 0.25 | 98 | 1006.3 |
| 20260902040805 | 8 | 227 | 1.6 | 3.2 | 0.00 | 0.25 | 0.25 | 99 | 1006.1 |
| 20260902040305 | 8 | 307 | 0.0 | 4.8 | 0.00 | 0.25 | 0.25 | 98 | 1006.1 |
| 20260902030805 | 8 | 23 | 3.2 | 3.2 | 0.00 | 0.25 | 0.25 | 99 | 1005.8 |
| 20260902030304 | 8 | 20 | 3.2 | 4.8 | 0.00 | 0.25 | 0.25 | 98 | 1005.7 |
| 20260902020804 | 8 | 20 | 3.2 | 4.8 | 0.00 | 0.25 | 0.25 | 98 | 1005.5 |
| 20260902010805 | 8 | 358 | 3.2 | 4.8 | 0.13 | 0.25 | 0.25 | 96 | 1005.2 |
| 20260902010305 | 8 | 14 | 3.2 | 9.7 | 0.13 | 0.25 | 0.25 | 95 | 1005.1 |
| 20260902000805 | 10 | 284 | 4.8 | 8.0 | 0.13 | 0.13 | 0.13 | 93 | 1004.7 |
| 20260902000304 | 10 | 273 | 8.0 | 9.7 | 0.13 | 0.13 | 0.13 | 93 | 1004.7 |
| 20260901230805 | 13 | 244 | 1.6 | 4.8 | 0.00 | 0.00 | 0.00 | 65 | 1004.2 |
| 20260901230305 | 12 | 295 | 1.6 | 11.3 | 0.00 | 0.00 | 0.00 | 65 | 1004.2 |
| 20260901220305 | 11 | 268 | 3.2 | 14.5 | 0.00 | 0.00 | 0.00 | 73 | 1004.4 |
| 20260901210805 | 11 | 289 | 3.2 | 12.9 | 0.00 | 0.00 | 0.00 | 76 | 1004.4 |
| 20260901210305 | 11 | 304 | 1.6 | 9.7 | 0.00 | 0.00 | 0.00 | 76 | 1004.4 |
| 20260901200805 | 11 | 310 | 3.2 | 8.0 | 0.00 | 0.00 | 0.00 | 76 | 1004.3 |
| 20260901200305 | 11 | 287 | 1.6 | 11.3 | 0.00 | 0.00 | 0.00 | 75 | 1004.3 |
| 20260901190805 | 9 | 119 | 6.4 | 11.3 | 0.00 | 0.00 | 0.00 | 78 | 1004.6 |
| 20260901190305 | 9 | 278 | 6.4 | 14.5 | 0.00 | 0.00 | 0.00 | 80 | 1004.7 |
| 20260901180804 | 8 | 281 | 8.0 | 12.9 | 0.00 | 0.00 | 0.00 | 86 | 1004.7 |
| 20260901180305 | 8 | 281 | 8.0 | 12.9 | 0.00 | 0.00 | 0.00 | 87 | 1004.6 |
| 20260901170805 | 7 | 261 | 3.2 | 4.8 | 0.00 | 0.00 | 0.00 | 92 | 1004.5 |